Time;durP1;ratioP1;P1;durP2;ratioP2;P2;SDS_P1;SDS_P2;PMS_P1;PMS_P2;Temp;Humidity;BMP_temperature;BMP_pressure;BME280_temperature;BME280_humidity;BME280_pressure;Samples;Min_cycle;Max_cycle;Signal;HPM_P1;HPM_P2
2020/12/10 00:00:15;;;;;;;25.58;16.15;;;;;;;;;;4958437;28;20439;-74
2020/12/10 00:02:41;;;;;;;26.75;15.88;;;;;;;;;;4966864;28;20229;-74
2020/12/10 00:05:08;;;;;;;26.37;15.90;;;;;;;;;;4956011;28;20196;-74
2020/12/10 00:07:34;;;;;;;25.33;15.73;;;;;;;;;;4955429;28;20484;-73
2020/12/10 00:10:00;;;;;;;26.23;16.80;;;;;;;;;;4972555;28;20666;-73
2020/12/10 00:12:28;;;;;;;22.73;14.77;;;;;;;;;;4955460;28;20187;-74
2020/12/10 00:14:54;;;;;;;23.92;15.85;;;;;;;;;;4955103;29;20225;-74
2020/12/10 00:17:27;;;;;;;22.50;15.52;;;;;;;;;;4972891;28;20196;-74
2020/12/10 00:19:54;;;;;;;22.50;15.30;;;;;;;;;;4964731;28;20607;-74
2020/12/10 00:22:20;;;;;;;25.70;15.82;;;;;;;;;;4962419;28;20185;-74
2020/12/10 00:24:47;;;;;;;24.15;14.68;;;;;;;;;;4970026;28;20614;-74
2020/12/10 00:27:14;;;;;;;22.13;15.32;;;;;;;;;;4970490;28;20288;-74
2020/12/10 00:29:39;;;;;;;21.58;13.38;;;;;;;;;;4971222;28;20176;-74
2020/12/10 00:32:05;;;;;;;29.77;16.23;;;;;;;;;;4954763;28;20184;-74
2020/12/10 00:34:31;;;;;;;23.40;15.93;;;;;;;;;;4952581;28;20515;-75
2020/12/10 00:36:57;;;;;;;21.35;14.52;;;;;;;;;;4965124;28;20431;-74
2020/12/10 00:39:24;;;;;;;29.73;16.10;;;;;;;;;;4973672;28;20223;-74
2020/12/10 00:41:54;;;;;;;28.42;15.93;;;;;;;;;;4972097;28;20180;-74
2020/12/10 00:44:22;;;;;;;21.98;15.07;;;;;;;;;;4974024;28;20173;-74
2020/12/10 00:46:48;;;;;;;22.95;16.55;;;;;;;;;;4957891;28;20676;-74
2020/12/10 00:49:14;;;;;;;26.80;15.90;;;;;;;;;;4967626;28;20242;-74
2020/12/10 00:51:40;;;;;;;22.67;14.98;;;;;;;;;;4965973;28;20423;-75
2020/12/10 00:54:06;;;;;;;25.77;16.55;;;;;;;;;;4963865;28;20232;-74
2020/12/10 00:56:35;;;;;;;30.40;18.63;;;;;;;;;;4954295;29;20201;-74
2020/12/10 00:59:01;;;;;;;28.83;17.98;;;;;;;;;;4954145;29;20473;-74
2020/12/10 01:01:32;;;;;;;22.67;16.50;;;;;;;;;;4954680;28;20188;-75
2020/12/10 01:04:00;;;;;;;24.00;17.02;;;;;;;;;;4954227;28;20181;-75
2020/12/10 01:06:26;;;;;;;24.15;14.63;;;;;;;;;;4964475;28;20188;-74
2020/12/10 01:08:52;;;;;;;28.52;16.02;;;;;;;;;;4959699;28;20275;-74
2020/12/10 01:11:18;;;;;;;28.13;18.33;;;;;;;;;;4963434;28;20288;-74
2020/12/10 01:13:44;;;;;;;22.80;15.88;;;;;;;;;;4973123;28;20678;-75
2020/12/10 01:16:12;;;;;;;22.83;14.45;;;;;;;;;;4966150;28;20205;-74
2020/12/10 01:18:38;;;;;;;19.92;15.43;;;;;;;;;;4953761;29;20223;-74
2020/12/10 01:21:04;;;;;;;21.08;14.38;;;;;;;;;;4953917;29;20610;-75
2020/12/10 01:23:30;;;;;;;24.33;14.87;;;;;;;;;;4958835;28;20198;-74
2020/12/10 01:25:56;;;;;;;20.63;13.70;;;;;;;;;;4972720;28;20427;-75
2020/12/10 01:28:22;;;;;;;26.65;13.90;;;;;;;;;;4973031;28;20431;-75
2020/12/10 01:30:47;;;;;;;23.87;14.90;;;;;;;;;;4964260;28;20535;-74
2020/12/10 01:33:13;;;;;;;23.60;14.37;;;;;;;;;;4953712;28;20769;-75
2020/12/10 01:35:39;;;;;;;23.53;13.30;;;;;;;;;;4960204;28;20838;-75
2020/12/10 01:38:07;;;;;;;26.40;16.53;;;;;;;;;;4972666;28;20431;-75
2020/12/10 01:40:33;;;;;;;24.08;14.30;;;;;;;;;;4971437;28;20420;-75
2020/12/10 01:42:59;;;;;;;24.63;15.00;;;;;;;;;;4972736;28;20268;-75
2020/12/10 01:45:25;;;;;;;20.70;13.18;;;;;;;;;;4968477;28;20480;-75
2020/12/10 01:47:53;;;;;;;29.90;15.60;;;;;;;;;;4952937;28;20759;-74
2020/12/10 01:50:21;;;;;;;25.63;14.70;;;;;;;;;;4953998;28;20188;-74
2020/12/10 01:52:50;;;;;;;26.10;15.40;;;;;;;;;;4972433;28;20580;-74
2020/12/10 01:55:16;;;;;;;23.00;14.52;;;;;;;;;;4953644;29;20260;-74
2020/12/10 01:57:45;;;;;;;22.35;14.73;;;;;;;;;;4954212;28;20201;-74
2020/12/10 02:00:10;;;;;;;21.02;15.07;;;;;;;;;;4952569;28;20259;-74
2020/12/10 02:02:36;;;;;;;24.80;15.93;;;;;;;;;;4972403;28;20187;-74
2020/12/10 02:05:02;;;;;;;22.60;14.13;;;;;;;;;;4972405;28;20507;-74
2020/12/10 02:07:28;;;;;;;22.17;14.90;;;;;;;;;;4953420;28;20444;-74
2020/12/10 02:09:54;;;;;;;25.40;15.30;;;;;;;;;;4953265;28;20177;-74
2020/12/10 02:12:20;;;;;;;24.33;14.18;;;;;;;;;;4966991;28;20474;-74
2020/12/10 02:14:46;;;;;;;22.90;14.03;;;;;;;;;;4972134;28;20181;-74
2020/12/10 02:17:12;;;;;;;21.80;14.17;;;;;;;;;;4971857;28;20530;-74
2020/12/10 02:19:38;;;;;;;26.42;17.00;;;;;;;;;;4972051;28;20443;-74
2020/12/10 02:22:04;;;;;;;26.50;15.77;;;;;;;;;;4965835;28;20667;-74
2020/12/10 02:24:30;;;;;;;25.90;13.80;;;;;;;;;;4959573;28;20432;-74
2020/12/10 02:26:58;;;;;;;23.77;14.90;;;;;;;;;;4952954;28;20424;-74
2020/12/10 02:29:24;;;;;;;29.38;15.95;;;;;;;;;;4956029;28;20195;-74
2020/12/10 02:31:50;;;;;;;24.75;15.88;;;;;;;;;;4968789;28;20188;-74
2020/12/10 02:34:16;;;;;;;26.20;14.10;;;;;;;;;;4971977;28;20200;-74
2020/12/10 02:36:43;;;;;;;22.40;14.33;;;;;;;;;;4969494;28;20973;-74
2020/12/10 02:39:09;;;;;;;21.45;14.02;;;;;;;;;;4970553;28;20436;-74
2020/12/10 02:41:38;;;;;;;22.90;13.43;;;;;;;;;;4952530;29;20173;-74
2020/12/10 02:44:04;;;;;;;22.83;14.50;;;;;;;;;;4952640;29;20256;-74
2020/12/10 02:46:32;;;;;;;21.23;14.25;;;;;;;;;;4967935;28;20191;-74
2020/12/10 02:48:58;;;;;;;25.13;16.50;;;;;;;;;;4971723;28;20235;-74
2020/12/10 02:51:24;;;;;;;22.00;13.68;;;;;;;;;;4961556;28;20199;-74
2020/12/10 02:53:52;;;;;;;24.60;15.95;;;;;;;;;;4952551;28;20213;-74
2020/12/10 02:56:18;;;;;;;23.60;13.25;;;;;;;;;;4957662;28;20222;-74
2020/12/10 02:58:45;;;;;;;30.58;15.45;;;;;;;;;;4969480;28;20287;-75
2020/12/10 03:01:13;;;;;;;22.52;15.32;;;;;;;;;;4963085;28;20845;-75
2020/12/10 03:03:41;;;;;;;28.70;17.05;;;;;;;;;;4973949;28;20215;-75
2020/12/10 03:06:08;;;;;;;22.33;14.20;;;;;;;;;;4968064;28;20189;-75
2020/12/10 03:08:34;;;;;;;21.88;14.55;;;;;;;;;;4956415;28;20223;-75
2020/12/10 03:11:00;;;;;;;32.63;17.73;;;;;;;;;;4961277;28;20208;-74
2020/12/10 03:13:26;;;;;;;25.65;14.55;;;;;;;;;;4954832;28;20219;-75
2020/12/10 03:15:53;;;;;;;22.48;13.02;;;;;;;;;;4956165;28;20239;-74
2020/12/10 03:18:19;;;;;;;32.13;16.48;;;;;;;;;;4954559;29;20193;-75
2020/12/10 03:20:45;;;;;;;22.40;13.63;;;;;;;;;;4959709;28;20188;-75
2020/12/10 03:23:13;;;;;;;30.48;16.60;;;;;;;;;;4975520;28;20176;-75
2020/12/10 03:25:39;;;;;;;29.83;16.23;;;;;;;;;;4968226;28;20192;-75
2020/12/10 03:28:05;;;;;;;31.53;18.30;;;;;;;;;;4973869;28;20581;-75
2020/12/10 03:30:31;;;;;;;32.75;17.38;;;;;;;;;;4974590;28;20644;-75
2020/12/10 03:32:57;;;;;;;25.67;16.17;;;;;;;;;;4974888;28;20176;-75
2020/12/10 03:35:23;;;;;;;27.67;15.85;;;;;;;;;;4968611;28;20710;-75
2020/12/10 03:37:49;;;;;;;23.77;15.07;;;;;;;;;;4955748;29;20204;-75
2020/12/10 03:40:15;;;;;;;31.20;16.83;;;;;;;;;;4956021;28;20263;-74
2020/12/10 03:42:41;;;;;;;26.83;16.13;;;;;;;;;;4956003;28;20593;-75
2020/12/10 03:45:07;;;;;;;24.63;15.43;;;;;;;;;;4955677;28;20440;-74
2020/12/10 03:47:33;;;;;;;29.90;16.37;;;;;;;;;;4956443;28;20464;-75
2020/12/10 03:49:59;;;;;;;26.93;16.90;;;;;;;;;;4972434;28;20441;-75
2020/12/10 03:52:24;;;;;;;42.67;17.40;;;;;;;;;;4971035;28;20432;-74
2020/12/10 03:54:51;;;;;;;32.53;17.60;;;;;;;;;;4974507;28;20526;-75
2020/12/10 03:57:17;;;;;;;30.73;16.35;;;;;;;;;;4955245;28;20820;-75
2020/12/10 03:59:42;;;;;;;31.65;17.83;;;;;;;;;;4955543;28;20263;-75
2020/12/10 04:02:08;;;;;;;28.13;16.33;;;;;;;;;;4956434;28;20320;-75
2020/12/10 04:04:34;;;;;;;28.65;17.05;;;;;;;;;;4955627;28;20421;-75
2020/12/10 04:07:02;;;;;;;27.30;15.80;;;;;;;;;;4963530;28;20557;-74
2020/12/10 04:09:28;;;;;;;31.30;18.20;;;;;;;;;;4955399;28;20424;-74
2020/12/10 04:11:54;;;;;;;27.30;15.35;;;;;;;;;;4955115;28;20242;-75
2020/12/10 04:14:20;;;;;;;33.03;19.33;;;;;;;;;;4955519;28;20181;-74
2020/12/10 04:16:46;;;;;;;26.40;16.97;;;;;;;;;;4955383;28;20499;-75
2020/12/10 04:19:12;;;;;;;28.50;17.30;;;;;;;;;;4968703;28;20510;-74
2020/12/10 04:21:38;;;;;;;31.20;17.55;;;;;;;;;;4955360;28;20221;-74
2020/12/10 04:24:04;;;;;;;25.83;16.33;;;;;;;;;;4963367;28;20592;-75
2020/12/10 04:26:30;;;;;;;33.88;17.83;;;;;;;;;;4973488;28;20860;-74
2020/12/10 04:28:56;;;;;;;30.10;17.98;;;;;;;;;;4973546;28;20200;-74
2020/12/10 04:31:22;;;;;;;26.97;17.80;;;;;;;;;;4971051;28;20176;-75
2020/12/10 04:33:48;;;;;;;30.10;16.90;;;;;;;;;;4973762;28;20424;-75
2020/12/10 04:36:14;;;;;;;29.90;16.63;;;;;;;;;;4966641;28;20466;-75
2020/12/10 04:38:40;;;;;;;31.00;16.93;;;;;;;;;;4953433;28;20436;-74
2020/12/10 04:41:07;;;;;;;30.58;17.33;;;;;;;;;;4954460;28;20507;-75
2020/12/10 04:43:33;;;;;;;27.15;17.88;;;;;;;;;;4959139;28;20184;-75
2020/12/10 04:46:00;;;;;;;24.75;17.38;;;;;;;;;;4954526;28;20185;-75
2020/12/10 04:48:31;;;;;;;39.00;21.33;;;;;;;;;;4992695;23;20232;-75
2020/12/10 04:50:59;;;;;;;30.73;19.67;;;;;;;;;;4973629;28;20189;-74
2020/12/10 04:53:25;;;;;;;32.42;18.02;;;;;;;;;;4983216;28;20179;-74
2020/12/10 04:55:55;;;;;;;30.45;18.63;;;;;;;;;;4990609;28;20227;-72
2020/12/10 04:58:21;;;;;;;27.17;19.25;;;;;;;;;;4990944;28;20209;-72
2020/12/10 05:00:47;;;;;;;29.73;17.60;;;;;;;;;;4992254;28;20531;-72
2020/12/10 05:03:14;;;;;;;30.38;19.45;;;;;;;;;;4980260;28;20186;-72
2020/12/10 05:05:40;;;;;;;31.70;18.75;;;;;;;;;;4991718;28;20211;-72
2020/12/10 05:08:06;;;;;;;30.77;19.10;;;;;;;;;;4982592;28;20262;-72
2020/12/10 05:10:44;;;;;;;33.13;18.47;;;;;;;;;;4987730;28;20488;-72
2020/12/10 05:13:12;;;;;;;33.35;20.30;;;;;;;;;;4973269;28;20846;-74
2020/12/10 05:15:40;;;;;;;31.30;18.95;;;;;;;;;;4974413;28;20211;-72
2020/12/10 05:18:09;;;;;;;28.55;17.30;;;;;;;;;;4972816;28;20196;-73
2020/12/10 05:20:39;;;;;;;28.60;17.50;;;;;;;;;;4974142;28;20211;-73
2020/12/10 05:23:07;;;;;;;32.15;18.85;;;;;;;;;;4991219;28;20186;-73
2020/12/10 05:25:44;;;;;;;31.25;18.30;;;;;;;;;;4992367;28;20171;-72
2020/12/10 05:28:10;;;;;;;29.63;18.27;;;;;;;;;;4990419;28;20231;-73
2020/12/10 05:30:36;;;;;;;32.33;18.00;;;;;;;;;;4992513;28;20597;-72
2020/12/10 05:33:08;;;;;;;31.37;18.90;;;;;;;;;;4985811;28;20938;-72
2020/12/10 05:35:34;;;;;;;29.20;17.02;;;;;;;;;;4978924;28;20462;-73
2020/12/10 05:38:06;;;;;;;26.10;16.80;;;;;;;;;;4983802;28;20210;-73
2020/12/10 05:40:32;;;;;;;32.70;17.92;;;;;;;;;;4990564;28;20451;-73
2020/12/10 05:42:58;;;;;;;29.03;19.77;;;;;;;;;;4991505;28;20218;-73
2020/12/10 05:45:24;;;;;;;41.70;19.40;;;;;;;;;;4986987;28;20438;-72
2020/12/10 05:47:51;;;;;;;34.10;20.05;;;;;;;;;;4972327;28;20514;-73
2020/12/10 05:50:25;;;;;;;36.72;19.95;;;;;;;;;;4976176;28;20184;-73
2020/12/10 05:53:10;;;;;;;30.05;18.50;;;;;;;;;;4972141;28;20180;-73
2020/12/10 05:55:40;;;;;;;31.40;19.58;;;;;;;;;;4973398;28;20625;-74
2020/12/10 05:58:07;;;;;;;41.33;19.73;;;;;;;;;;4978249;28;20207;-72
2020/12/10 06:00:34;;;;;;;36.55;20.25;;;;;;;;;;4973154;28;20179;-72
2020/12/10 06:03:00;;;;;;;29.17;17.98;;;;;;;;;;4991235;28;20211;-73
2020/12/10 06:05:27;;;;;;;35.55;18.77;;;;;;;;;;4985672;28;20255;-73
2020/12/10 06:07:58;;;;;;;32.50;19.08;;;;;;;;;;4978059;28;20254;-72
2020/12/10 06:10:25;;;;;;;39.85;20.95;;;;;;;;;;4981832;28;20180;-74
2020/12/10 06:12:51;;;;;;;34.25;18.17;;;;;;;;;;4977378;28;20202;-73
2020/12/10 06:15:25;;;;;;;33.30;20.98;;;;;;;;;;4976420;28;20180;-74
2020/12/10 06:17:59;;;;;;;31.70;19.83;;;;;;;;;;4972115;28;20254;-73
2020/12/10 06:20:35;;;;;;;33.17;20.63;;;;;;;;;;4991645;28;20167;-72
2020/12/10 06:23:20;;;;;;;35.50;19.70;;;;;;;;;;4973104;28;20202;-73
2020/12/10 06:25:46;;;;;;;29.38;17.40;;;;;;;;;;4970680;28;20212;-73
2020/12/10 06:28:22;;;;;;;30.83;18.67;;;;;;;;;;4990435;28;20203;-72
2020/12/10 06:31:07;;;;;;;29.90;17.80;;;;;;;;;;4991591;28;20544;-72
2020/12/10 06:33:42;;;;;;;33.13;19.73;;;;;;;;;;4981012;28;20180;-72
2020/12/10 06:36:25;;;;;;;28.48;16.35;;;;;;;;;;4971075;28;20679;-73
2020/12/10 06:38:52;;;;;;;29.98;19.10;;;;;;;;;;4976909;28;20231;-71
2020/12/10 06:41:18;;;;;;;33.50;19.23;;;;;;;;;;4971798;28;20243;-72
2020/12/10 06:43:44;;;;;;;34.30;19.70;;;;;;;;;;4971916;28;20263;-72
2020/12/10 06:46:10;;;;;;;30.33;18.17;;;;;;;;;;4971897;28;20184;-73
2020/12/10 06:48:42;;;;;;;32.50;19.20;;;;;;;;;;4971462;28;20306;-72
2020/12/10 06:51:11;;;;;;;29.98;18.80;;;;;;;;;;4972713;28;20223;-72
2020/12/10 06:53:38;;;;;;;26.67;17.80;;;;;;;;;;4973879;28;20246;-74
2020/12/10 06:56:06;;;;;;;32.63;18.73;;;;;;;;;;4971764;28;20291;-73
2020/12/10 06:58:35;;;;;;;31.08;18.75;;;;;;;;;;4971628;28;20705;-71
2020/12/10 07:01:20;;;;;;;28.13;18.25;;;;;;;;;;4981033;28;20192;-72
2020/12/10 07:03:47;;;;;;;33.75;19.10;;;;;;;;;;4987492;28;20284;-70
2020/12/10 07:06:21;;;;;;;31.52;19.95;;;;;;;;;;4999863;28;20172;-71
2020/12/10 07:09:10;;;;;;;37.85;21.95;;;;;;;;;;4976820;28;20239;-71
2020/12/10 07:11:37;;;;;;;36.35;21.42;;;;;;;;;;4990970;28;20265;-72
2020/12/10 07:14:21;;;;;;;32.55;19.10;;;;;;;;;;4990796;28;20176;-71
2020/12/10 07:16:47;;;;;;;31.98;19.95;;;;;;;;;;4990168;28;20740;-71
2020/12/10 07:19:13;;;;;;;33.83;20.95;;;;;;;;;;4979142;28;20209;-72
2020/12/10 07:21:39;;;;;;;30.92;18.85;;;;;;;;;;4983198;28;20180;-70
2020/12/10 07:24:05;;;;;;;32.83;20.35;;;;;;;;;;4977684;28;20649;-71
2020/12/10 07:26:31;;;;;;;30.80;18.75;;;;;;;;;;4979689;28;20238;-72
2020/12/10 07:28:57;;;;;;;36.78;19.58;;;;;;;;;;4983373;28;20273;-71
2020/12/10 07:31:25;;;;;;;33.20;21.00;;;;;;;;;;4991139;28;20172;-71
2020/12/10 07:33:55;;;;;;;35.58;22.30;;;;;;;;;;4991015;28;20446;-71
2020/12/10 07:36:26;;;;;;;34.45;18.35;;;;;;;;;;4984411;28;20195;-72
2020/12/10 07:38:52;;;;;;;35.15;20.85;;;;;;;;;;4989018;28;20203;-71
2020/12/10 07:41:18;;;;;;;31.30;18.80;;;;;;;;;;4979890;28;20213;-70
2020/12/10 07:43:45;;;;;;;32.75;20.17;;;;;;;;;;4978753;28;20172;-70
2020/12/10 07:46:11;;;;;;;30.17;18.02;;;;;;;;;;4980758;28;20179;-71
2020/12/10 07:48:37;;;;;;;31.85;16.80;;;;;;;;;;4990512;28;20215;-70
2020/12/10 07:51:03;;;;;;;30.85;19.73;;;;;;;;;;4991618;28;20181;-73
2020/12/10 07:53:29;;;;;;;29.88;18.55;;;;;;;;;;4994158;28;20176;-72
2020/12/10 07:55:58;;;;;;;29.33;18.10;;;;;;;;;;4981380;28;20207;-70
2020/12/10 07:58:36;;;;;;;36.65;21.08;;;;;;;;;;4976489;28;20440;-71
2020/12/10 08:01:05;;;;;;;33.33;20.30;;;;;;;;;;4974370;28;20231;-71
2020/12/10 08:03:30;;;;;;;27.95;17.33;;;;;;;;;;4974931;28;20635;-71
2020/12/10 08:06:01;;;;;;;30.03;18.87;;;;;;;;;;4977929;28;20187;-70
2020/12/10 08:08:46;;;;;;;39.00;19.33;;;;;;;;;;4994523;28;20435;-71
2020/12/10 08:11:14;;;;;;;28.95;19.00;;;;;;;;;;4994292;28;20175;-71
2020/12/10 08:13:56;;;;;;;30.05;17.42;;;;;;;;;;4985610;28;20525;-70
2020/12/10 08:16:22;;;;;;;27.00;16.63;;;;;;;;;;4985745;28;20282;-71
2020/12/10 08:18:48;;;;;;;30.13;18.63;;;;;;;;;;4973844;28;20200;-71
2020/12/10 08:21:31;;;;;;;28.65;18.70;;;;;;;;;;4974167;28;20180;-71
2020/12/10 08:23:56;;;;;;;29.45;18.45;;;;;;;;;;4974835;28;20184;-71
2020/12/10 08:26:22;;;;;;;56.00;38.57;;;;;;;;;;4973539;28;20550;-70
2020/12/10 08:28:52;;;;;;;32.07;20.80;;;;;;;;;;4981303;28;20451;-71
2020/12/10 08:31:25;;;;;;;29.63;19.35;;;;;;;;;;4973559;28;20408;-71
2020/12/10 08:33:54;;;;;;;31.88;18.17;;;;;;;;;;4972851;28;20247;-71
2020/12/10 08:36:32;;;;;;;26.40;17.48;;;;;;;;;;4980706;28;20230;-71
2020/12/10 08:38:59;;;;;;;31.40;20.60;;;;;;;;;;4993298;28;20253;-71
2020/12/10 08:41:26;;;;;;;49.63;27.73;;;;;;;;;;4993378;28;20175;-71
2020/12/10 08:43:53;;;;;;;31.52;22.17;;;;;;;;;;4992544;28;20184;-72
2020/12/10 08:46:19;;;;;;;32.80;18.67;;;;;;;;;;4973634;28;20222;-71
2020/12/10 08:48:45;;;;;;;60.30;35.80;;;;;;;;;;4973428;28;20691;-72
2020/12/10 08:51:10;;;;;;;35.93;19.67;;;;;;;;;;4973601;28;20432;-71
2020/12/10 08:53:38;;;;;;;29.03;18.13;;;;;;;;;;4978531;28;20530;-72
2020/12/10 08:56:04;;;;;;;30.58;18.15;;;;;;;;;;4984161;28;20489;-72
2020/12/10 08:58:30;;;;;;;23.73;14.90;;;;;;;;;;4984195;28;20303;-71
2020/12/10 09:00:59;;;;;;;31.08;17.73;;;;;;;;;;4978107;28;20554;-69
2020/12/10 09:03:25;;;;;;;26.33;18.38;;;;;;;;;;4973496;28;20190;-71
2020/12/10 09:05:51;;;;;;;33.17;19.83;;;;;;;;;;4982815;28;20184;-71
2020/12/10 09:08:26;;;;;;;26.33;16.95;;;;;;;;;;4981621;28;20199;-73
2020/12/10 09:10:52;;;;;;;29.50;17.40;;;;;;;;;;4991623;28;20182;-72
2020/12/10 09:13:18;;;;;;;27.70;18.23;;;;;;;;;;4984904;28;20234;-72
2020/12/10 09:15:44;;;;;;;27.15;16.88;;;;;;;;;;4980067;28;20173;-73
2020/12/10 09:18:10;;;;;;;25.08;18.02;;;;;;;;;;4974214;28;20196;-72
2020/12/10 09:20:37;;;;;;;31.70;17.52;;;;;;;;;;4983733;28;20180;-73
2020/12/10 09:23:05;;;;;;;28.80;19.30;;;;;;;;;;4973046;28;20598;-73
2020/12/10 09:25:31;;;;;;;29.63;17.25;;;;;;;;;;4972978;28;20263;-74
2020/12/10 09:27:57;;;;;;;28.08;16.75;;;;;;;;;;4973174;28;20234;-72
2020/12/10 09:30:23;;;;;;;28.48;19.17;;;;;;;;;;4977376;28;20352;-71
2020/12/10 09:32:49;;;;;;;28.52;17.13;;;;;;;;;;4978170;28;20307;-70
2020/12/10 09:35:16;;;;;;;30.05;16.83;;;;;;;;;;4991530;28;20781;-72
2020/12/10 09:37:42;;;;;;;20.55;16.08;;;;;;;;;;4974279;28;20355;-73
2020/12/10 09:40:09;;;;;;;22.52;15.75;;;;;;;;;;4972870;28;20177;-73
2020/12/10 09:42:43;;;;;;;23.05;15.20;;;;;;;;;;4981899;28;20324;-74
2020/12/10 09:45:09;;;;;;;23.38;15.38;;;;;;;;;;4972497;28;20172;-73
2020/12/10 09:47:35;;;;;;;20.52;13.93;;;;;;;;;;4982080;28;20180;-73
2020/12/10 09:50:02;;;;;;;15.75;12.40;;;;;;;;;;4972573;28;20191;-71
2020/12/10 09:52:29;;;;;;;19.20;13.27;;;;;;;;;;4972777;28;20180;-74
2020/12/10 09:57:29;;;;;;;16.50;12.00;;;;;;;;;;4986653;28;20359;-72
2020/12/10 09:59:57;;;;;;;16.48;10.30;;;;;;;;;;4975100;28;20473;-73
2020/12/10 10:02:24;;;;;;;26.42;13.55;;;;;;;;;;4982254;28;20255;-72
2020/12/10 10:04:50;;;;;;;15.80;11.13;;;;;;;;;;4971952;28;20709;-72
2020/12/10 10:07:16;;;;;;;19.00;11.90;;;;;;;;;;4986855;28;20183;-72
2020/12/10 10:09:43;;;;;;;15.73;10.85;;;;;;;;;;4991568;28;20639;-72
2020/12/10 10:12:09;;;;;;;16.90;11.70;;;;;;;;;;4991780;28;20206;-71
2020/12/10 10:14:36;;;;;;;17.65;10.38;;;;;;;;;;4988950;28;20180;-72
2020/12/10 10:17:06;;;;;;;15.07;11.68;;;;;;;;;;4989269;28;20286;-71
2020/12/10 10:19:32;;;;;;;15.98;11.00;;;;;;;;;;4991380;28;20882;-72
2020/12/10 10:22:04;;;;;;;17.85;11.55;;;;;;;;;;4978175;28;20192;-72
2020/12/10 10:24:31;;;;;;;17.45;11.73;;;;;;;;;;4988680;28;20187;-73
2020/12/10 10:26:57;;;;;;;15.25;10.77;;;;;;;;;;4977482;28;20191;-71
2020/12/10 10:29:23;;;;;;;14.85;10.65;;;;;;;;;;4971349;28;20227;-72
2020/12/10 10:31:51;;;;;;;14.02;10.13;;;;;;;;;;4970803;28;20203;-73
2020/12/10 10:34:17;;;;;;;14.38;10.65;;;;;;;;;;4983324;28;20559;-69
2020/12/10 10:36:43;;;;;;;17.33;11.65;;;;;;;;;;4971378;28;20442;-72
2020/12/10 10:39:09;;;;;;;16.50;10.60;;;;;;;;;;4972027;28;20632;-73
2020/12/10 10:41:42;;;;;;;15.27;10.68;;;;;;;;;;4975806;28;20191;-69
2020/12/10 10:44:09;;;;;;;13.93;9.68;;;;;;;;;;4979863;28;20710;-70
2020/12/10 10:46:35;;;;;;;13.40;9.50;;;;;;;;;;4981209;28;20710;-72
2020/12/10 10:49:01;;;;;;;15.90;10.40;;;;;;;;;;4993457;28;20227;-72
2020/12/10 10:51:27;;;;;;;16.40;11.65;;;;;;;;;;4980510;28;20184;-71
2020/12/10 10:53:53;;;;;;;14.90;10.02;;;;;;;;;;4978301;28;20222;-72
2020/12/10 10:56:23;;;;;;;11.27;8.80;;;;;;;;;;4981513;28;20191;-71
2020/12/10 10:58:49;;;;;;;19.95;9.98;;;;;;;;;;4978828;28;20261;-71
2020/12/10 11:01:16;;;;;;;12.93;9.15;;;;;;;;;;4980128;28;20176;-72
2020/12/10 11:03:42;;;;;;;14.52;10.55;;;;;;;;;;4976825;28;20180;-72
2020/12/10 11:06:14;;;;;;;12.60;10.20;;;;;;;;;;4970041;23;20224;-72
2020/12/10 11:08:40;;;;;;;11.75;9.95;;;;;;;;;;4943146;29;20189;-72
2020/12/10 11:11:06;;;;;;;13.85;10.18;;;;;;;;;;4936278;29;20232;-71
2020/12/10 11:13:32;;;;;;;12.60;10.03;;;;;;;;;;4945813;29;20189;-72
2020/12/10 11:15:58;;;;;;;12.73;10.40;;;;;;;;;;4952177;28;20421;-70
2020/12/10 11:18:24;;;;;;;13.10;10.20;;;;;;;;;;4952010;28;20923;-71
2020/12/10 11:20:50;;;;;;;17.40;12.00;;;;;;;;;;4941374;29;20821;-72
2020/12/10 11:23:16;;;;;;;14.82;11.20;;;;;;;;;;4937078;29;20406;-72
2020/12/10 11:25:42;;;;;;;16.23;11.75;;;;;;;;;;4936978;29;20677;-72
2020/12/10 11:28:08;;;;;;;16.75;10.52;;;;;;;;;;4941033;29;20271;-72
2020/12/10 11:30:34;;;;;;;14.73;11.87;;;;;;;;;;4956119;29;20176;-73
2020/12/10 11:33:00;;;;;;;20.25;11.65;;;;;;;;;;4956062;29;20416;-72
2020/12/10 11:35:26;;;;;;;10.65;9.20;;;;;;;;;;4952837;28;20719;-72
2020/12/10 11:37:55;;;;;;;14.43;11.80;;;;;;;;;;4954764;28;20564;-73
2020/12/10 11:40:24;;;;;;;14.98;11.27;;;;;;;;;;4955872;28;20176;-72
2020/12/10 11:42:50;;;;;;;14.10;11.13;;;;;;;;;;4955938;29;20789;-74
2020/12/10 11:45:17;;;;;;;12.88;11.07;;;;;;;;;;4955322;29;20263;-72
2020/12/10 11:47:43;;;;;;;14.00;12.30;;;;;;;;;;4941775;29;20184;-71
2020/12/10 11:50:09;;;;;;;13.50;10.40;;;;;;;;;;4941591;29;20184;-72
2020/12/10 11:52:34;;;;;;;12.13;9.67;;;;;;;;;;4957335;29;20432;-74
2020/12/10 11:55:00;;;;;;;14.93;10.63;;;;;;;;;;4955751;29;20440;-72
2020/12/10 11:57:26;;;;;;;14.97;11.53;;;;;;;;;;4955167;29;20456;-72
2020/12/10 11:59:52;;;;;;;15.73;12.57;;;;;;;;;;4955144;29;20919;-72
2020/12/10 12:02:18;;;;;;;11.77;10.00;;;;;;;;;;4945465;29;20417;-73
2020/12/10 12:04:45;;;;;;;12.70;9.67;;;;;;;;;;4946054;28;20578;-74
2020/12/10 12:07:11;;;;;;;14.70;10.25;;;;;;;;;;4954835;29;20428;-72
2020/12/10 12:09:39;;;;;;;14.40;11.43;;;;;;;;;;4955457;28;20178;-72
2020/12/10 12:12:05;;;;;;;12.32;10.00;;;;;;;;;;4955391;29;20268;-71
2020/12/10 12:14:31;;;;;;;14.20;10.05;;;;;;;;;;4955234;28;20208;-71
2020/12/10 12:16:58;;;;;;;12.55;9.48;;;;;;;;;;4954883;29;20205;-73
2020/12/10 12:19:24;;;;;;;14.20;11.57;;;;;;;;;;4953517;28;20204;-72
2020/12/10 12:21:50;;;;;;;9.80;8.20;;;;;;;;;;4954116;29;20665;-72
2020/12/10 12:24:16;;;;;;;12.73;10.77;;;;;;;;;;4955394;29;20459;-72
2020/12/10 12:26:42;;;;;;;14.83;8.73;;;;;;;;;;4951940;29;20783;-72
2020/12/10 12:29:07;;;;;;;10.30;9.10;;;;;;;;;;4952371;29;20463;-71
2020/12/10 12:31:36;;;;;;;12.20;9.33;;;;;;;;;;4953978;28;20195;-71
2020/12/10 12:34:02;;;;;;;14.20;9.73;;;;;;;;;;4954260;28;20507;-73
2020/12/10 12:36:28;;;;;;;13.53;9.37;;;;;;;;;;4953087;29;20581;-71
2020/12/10 12:38:54;;;;;;;11.65;9.60;;;;;;;;;;4945155;29;22134;-73
2020/12/10 12:41:25;;;;;;;13.10;9.95;;;;;;;;;;4951289;28;20221;-71
2020/12/10 12:43:51;;;;;;;14.15;10.20;;;;;;;;;;4948186;28;20263;-73
2020/12/10 12:46:17;;;;;;;23.60;14.40;;;;;;;;;;4945788;29;20284;-72
2020/12/10 12:48:43;;;;;;;17.33;11.47;;;;;;;;;;4949994;28;20817;-72
2020/12/10 12:51:09;;;;;;;14.05;10.10;;;;;;;;;;4947183;29;20448;-71
2020/12/10 12:53:35;;;;;;;12.77;10.15;;;;;;;;;;4946492;29;20179;-72
2020/12/10 12:56:06;;;;;;;13.10;9.27;;;;;;;;;;4947589;28;20209;-71
2020/12/10 12:58:33;;;;;;;12.38;8.48;;;;;;;;;;4947233;29;20425;-72
2020/12/10 13:00:59;;;;;;;12.77;9.48;;;;;;;;;;4954401;29;20317;-73
2020/12/10 13:03:25;;;;;;;13.20;10.33;;;;;;;;;;4954425;29;20213;-71
2020/12/10 13:05:51;;;;;;;14.37;8.70;;;;;;;;;;4953397;28;20465;-72
2020/12/10 13:08:18;;;;;;;13.97;10.43;;;;;;;;;;4954090;29;20408;-71
2020/12/10 13:10:44;;;;;;;12.98;9.23;;;;;;;;;;4954688;28;20581;-73
2020/12/10 13:13:10;;;;;;;10.82;9.50;;;;;;;;;;4953991;29;20189;-71
2020/12/10 13:15:37;;;;;;;11.75;8.90;;;;;;;;;;4954226;29;20259;-71
2020/12/10 13:18:03;;;;;;;10.23;8.45;;;;;;;;;;4953338;29;20236;-72
2020/12/10 13:20:29;;;;;;;13.55;9.55;;;;;;;;;;4950891;28;20735;-72
2020/12/10 13:22:56;;;;;;;10.65;8.75;;;;;;;;;;4953641;28;20173;-71
2020/12/10 13:25:24;;;;;;;13.52;9.40;;;;;;;;;;4953632;29;20847;-71
2020/12/10 13:27:50;;;;;;;11.07;9.55;;;;;;;;;;4953265;28;20275;-72
2020/12/10 13:30:16;;;;;;;12.02;10.25;;;;;;;;;;4953759;29;20739;-73
2020/12/10 13:32:42;;;;;;;14.55;9.50;;;;;;;;;;4952635;28;20216;-75
2020/12/10 13:35:14;;;;;;;12.07;9.17;;;;;;;;;;4953735;28;20616;-71
2020/12/10 13:37:40;;;;;;;9.52;7.80;;;;;;;;;;4953071;28;20535;-72
2020/12/10 13:40:06;;;;;;;9.82;8.25;;;;;;;;;;4953229;29;20227;-72
2020/12/10 13:42:32;;;;;;;11.43;9.50;;;;;;;;;;4953567;29;20625;-74
2020/12/10 13:45:02;;;;;;;11.50;7.93;;;;;;;;;;4952815;28;20239;-74
2020/12/10 13:47:31;;;;;;;13.30;9.02;;;;;;;;;;4942292;29;20292;-74
2020/12/10 13:49:57;;;;;;;12.63;9.30;;;;;;;;;;4944979;29;20209;-73
2020/12/10 13:52:24;;;;;;;14.00;9.68;;;;;;;;;;4945553;29;20274;-73
2020/12/10 13:54:50;;;;;;;12.90;9.95;;;;;;;;;;4942613;29;20260;-72
2020/12/10 13:57:16;;;;;;;15.15;9.35;;;;;;;;;;4938158;28;20189;-72
2020/12/10 13:59:42;;;;;;;15.00;10.40;;;;;;;;;;4934272;29;20185;-71
2020/12/10 14:02:10;;;;;;;11.63;8.50;;;;;;;;;;4949483;29;20480;-71
2020/12/10 14:04:36;;;;;;;13.38;9.88;;;;;;;;;;4952633;29;20417;-72
2020/12/10 14:07:02;;;;;;;10.07;8.03;;;;;;;;;;4952279;29;20279;-71
2020/12/10 14:09:30;;;;;;;10.43;8.13;;;;;;;;;;4953137;29;20409;-71
2020/12/10 14:11:59;;;;;;;10.68;8.02;;;;;;;;;;4953308;29;20301;-71
2020/12/10 14:14:26;;;;;;;12.18;10.30;;;;;;;;;;4953094;29;20181;-71
2020/12/10 14:16:52;;;;;;;13.18;10.15;;;;;;;;;;4950623;28;20205;-71
2020/12/10 14:19:17;;;;;;;11.50;9.07;;;;;;;;;;4950547;28;20189;-71
2020/12/10 14:21:43;;;;;;;11.77;9.63;;;;;;;;;;4952347;29;20579;-71